createdAt,value
2017-10-27T00:00:02.318Z,63.17
2017-10-27T00:02:29.838Z,62.07
2017-10-27T00:04:57.233Z,61.93
2017-10-27T00:07:24.687Z,60.27
2017-10-27T00:09:52.115Z,41.57
2017-10-27T00:12:19.544Z,44.53
2017-10-27T00:14:46.969Z,51.60
2017-10-27T00:17:14.425Z,52.30
2017-10-27T00:19:42.327Z,49.33
2017-10-27T00:22:09.743Z,65.77
2017-10-27T00:24:37.168Z,112.67
2017-10-27T00:27:04.721Z,94.77
2017-10-27T00:29:32.151Z,191.63
2017-10-27T00:32:00.482Z,137.33
2017-10-27T00:34:27.929Z,152.30
2017-10-27T00:36:55.359Z,114.60
2017-10-27T00:39:22.758Z,89.47
2017-10-27T00:41:50.239Z,106.17
2017-10-27T00:44:17.627Z,59.07
2017-10-27T00:46:45.064Z,44.00
2017-10-27T00:49:12.481Z,38.60
2017-10-27T00:51:39.912Z,37.80
2017-10-27T00:54:07.377Z,46.23
2017-10-27T00:56:34.820Z,63.23
2017-10-27T00:59:02.219Z,57.40
2017-10-27T01:01:29.677Z,46.23
2017-10-27T01:03:57.112Z,45.00
2017-10-27T01:06:24.535Z,59.47
2017-10-27T01:08:51.969Z,33.60
2017-10-27T01:11:19.430Z,42.53
2017-10-27T01:13:46.893Z,35.70
2017-10-27T01:16:14.335Z,32.37
2017-10-27T01:18:41.768Z,28.57
2017-10-27T01:21:09.182Z,31.90
2017-10-27T01:23:36.615Z,30.00
2017-10-27T01:26:04.025Z,29.87
2017-10-27T01:28:31.472Z,32.60
2017-10-27T01:30:58.880Z,32.30
2017-10-27T01:33:26.319Z,32.20
2017-10-27T01:35:53.750Z,26.70
2017-10-27T01:38:21.163Z,27.40
2017-10-27T01:40:48.602Z,28.07
2017-10-27T01:43:16.017Z,28.40
2017-10-27T01:45:43.444Z,28.23
2017-10-27T01:48:10.863Z,25.60
2017-10-27T01:50:38.282Z,29.40
2017-10-27T01:53:05.691Z,25.87
2017-10-27T01:55:33.131Z,26.00
2017-10-27T01:58:00.551Z,25.00
2017-10-27T02:00:28.015Z,28.10
2017-10-27T02:02:55.412Z,22.13
2017-10-27T02:05:22.857Z,27.60
2017-10-27T02:07:50.312Z,22.33
2017-10-27T02:10:17.797Z,24.00
2017-10-27T02:12:45.247Z,27.97
2017-10-27T02:15:12.788Z,26.60
2017-10-27T02:17:40.208Z,26.60
2017-10-27T02:20:07.609Z,27.40
2017-10-27T02:22:35.064Z,31.27
2017-10-27T02:25:02.495Z,31.60
2017-10-27T02:27:29.885Z,25.20
2017-10-27T02:29:57.317Z,31.10
2017-10-27T02:32:24.724Z,31.33
2017-10-27T02:34:52.243Z,30.00
2017-10-27T02:37:19.643Z,33.23
2017-10-27T02:39:47.048Z,30.13
2017-10-27T02:42:14.511Z,32.30
2017-10-27T02:44:41.896Z,32.53
2017-10-27T02:47:09.329Z,31.57
2017-10-27T02:49:36.781Z,31.63
2017-10-27T02:52:04.201Z,33.00
2017-10-27T02:54:31.595Z,31.97
2017-10-27T02:56:59.059Z,31.13
2017-10-27T02:59:26.461Z,34.20
2017-10-27T03:01:53.907Z,31.67
2017-10-27T03:04:21.343Z,33.30
2017-10-27T03:06:48.781Z,31.43
2017-10-27T03:09:16.292Z,30.60
2017-10-27T03:11:43.692Z,34.93
2017-10-27T03:14:11.146Z,35.20
2017-10-27T03:16:38.588Z,31.20
2017-10-27T03:19:06.028Z,33.63
2017-10-27T03:21:33.429Z,36.27
2017-10-27T03:24:00.880Z,29.40
2017-10-27T03:26:28.297Z,32.20
2017-10-27T03:28:55.877Z,30.97
2017-10-27T03:31:23.274Z,31.87
2017-10-27T03:33:50.691Z,38.20
2017-10-27T03:36:18.137Z,34.07
2017-10-27T03:38:45.530Z,34.90
2017-10-27T03:41:12.957Z,36.13
2017-10-27T03:43:40.362Z,33.10
2017-10-27T03:46:07.799Z,39.63
2017-10-27T03:48:35.217Z,34.07
2017-10-27T03:51:02.649Z,39.70
2017-10-27T03:53:30.057Z,38.33
2017-10-27T03:55:57.485Z,37.60
2017-10-27T03:58:24.876Z,35.80
2017-10-27T04:00:52.325Z,38.40
2017-10-27T04:03:19.729Z,37.40
2017-10-27T04:05:47.144Z,35.10
2017-10-27T04:08:14.581Z,40.93
2017-10-27T04:10:41.996Z,39.67
2017-10-27T04:13:09.411Z,40.30
2017-10-27T04:15:36.819Z,38.57
2017-10-27T04:18:04.235Z,39.93
2017-10-27T04:20:31.660Z,37.90
2017-10-27T04:22:59.145Z,36.27
2017-10-27T04:25:26.580Z,37.53
2017-10-27T04:27:54.006Z,36.80
2017-10-27T04:30:21.432Z,36.10
2017-10-27T04:32:48.850Z,39.77
2017-10-27T04:35:16.307Z,42.90
2017-10-27T04:37:43.692Z,34.47
2017-10-27T04:40:11.128Z,36.80
2017-10-27T04:42:38.566Z,35.10
2017-10-27T04:45:06.008Z,37.20
2017-10-27T04:47:33.438Z,38.37
2017-10-27T04:50:00.871Z,40.40
2017-10-27T04:52:28.291Z,40.93
2017-10-27T04:54:55.738Z,35.70
2017-10-27T04:57:23.167Z,34.47
2017-10-27T04:59:50.558Z,26.50
2017-10-27T05:02:18.012Z,23.10
2017-10-27T05:04:45.411Z,9.50
2017-10-27T05:07:12.904Z,12.33
2017-10-27T05:09:40.303Z,10.07
2017-10-27T05:12:07.757Z,14.03
2017-10-27T05:14:35.169Z,11.13
2017-10-27T05:17:08.252Z,12.03
2017-10-27T05:19:41.292Z,11.27
2017-10-27T05:22:14.260Z,10.43
2017-10-27T05:24:41.669Z,9.17
2017-10-27T05:27:09.100Z,8.87
2017-10-27T05:29:36.519Z,9.07
2017-10-27T05:32:03.918Z,10.20
2017-10-27T05:34:31.336Z,9.63
2017-10-27T05:36:58.763Z,7.77
2017-10-27T05:39:26.220Z,7.70
2017-10-27T05:41:53.609Z,7.43
2017-10-27T05:44:21.060Z,7.73
2017-10-27T05:46:48.480Z,8.40
2017-10-27T05:49:15.932Z,13.40
2017-10-27T05:51:43.336Z,11.97
2017-10-27T05:54:10.781Z,9.60
2017-10-27T05:56:38.208Z,9.20
2017-10-27T05:59:05.618Z,7.70
2017-10-27T06:01:33.101Z,8.87
2017-10-27T06:04:00.525Z,10.97
2017-10-27T06:06:27.976Z,7.03
2017-10-27T06:08:55.403Z,5.97
2017-10-27T06:11:22.859Z,5.40
2017-10-27T06:13:50.291Z,5.40
2017-10-27T06:16:17.824Z,6.20
2017-10-27T06:18:45.248Z,4.90
2017-10-27T06:21:12.698Z,9.73
2017-10-27T06:23:40.123Z,5.70
2017-10-27T06:26:07.624Z,5.53
2017-10-27T06:28:36.512Z,5.57
2017-10-27T06:31:04.000Z,5.60
2017-10-27T06:33:31.435Z,7.00
2017-10-27T06:35:58.914Z,14.17
2017-10-27T06:38:26.549Z,8.50
2017-10-27T06:40:53.960Z,4.30
2017-10-27T06:43:21.395Z,7.00
2017-10-27T06:45:48.825Z,5.93
2017-10-27T06:48:16.377Z,4.63
2017-10-27T06:50:43.901Z,3.80
2017-10-27T06:53:11.318Z,7.27
2017-10-27T06:55:38.741Z,6.70
2017-10-27T06:58:06.169Z,6.23
2017-10-27T07:00:33.575Z,3.97
2017-10-27T07:03:01.372Z,4.40
2017-10-27T07:05:28.835Z,5.00
2017-10-27T07:08:00.956Z,4.23
2017-10-27T07:10:30.681Z,4.00
2017-10-27T07:12:58.152Z,4.27
2017-10-27T07:15:25.571Z,3.90
2017-10-27T07:18:00.441Z,3.47
2017-10-27T07:23:15.925Z,3.23
2017-10-27T07:25:45.027Z,5.97
2017-10-27T07:28:12.669Z,3.50
2017-10-27T07:30:40.229Z,3.70
2017-10-27T07:33:24.044Z,4.90
2017-10-27T07:35:51.800Z,6.40
2017-10-27T07:38:19.302Z,3.67
2017-10-27T07:40:46.735Z,5.13
2017-10-27T07:43:14.963Z,5.17
2017-10-27T07:45:42.452Z,5.57
2017-10-27T07:48:09.903Z,4.53
2017-10-27T07:50:37.373Z,4.23
2017-10-27T07:53:04.936Z,5.63
2017-10-27T07:55:32.371Z,6.27
2017-10-27T07:57:59.820Z,4.30
2017-10-27T08:00:27.200Z,5.20
2017-10-27T08:02:54.661Z,5.07
2017-10-27T08:05:22.072Z,7.53
2017-10-27T08:07:49.563Z,9.70
2017-10-27T08:10:16.960Z,5.73
2017-10-27T08:12:44.406Z,5.17
2017-10-27T08:15:11.817Z,6.03
2017-10-27T08:17:39.208Z,3.90
2017-10-27T08:20:06.626Z,5.03
2017-10-27T08:22:34.018Z,4.67
2017-10-27T08:25:01.454Z,3.43
2017-10-27T08:27:28.855Z,4.20
2017-10-27T08:29:56.294Z,5.17
2017-10-27T08:32:23.826Z,4.00
2017-10-27T08:34:51.285Z,9.10
2017-10-27T08:37:18.764Z,6.70
2017-10-27T08:39:46.176Z,7.27
2017-10-27T08:42:26.236Z,5.33
2017-10-27T08:44:53.626Z,5.57
2017-10-27T08:47:21.047Z,3.77
2017-10-27T08:49:48.588Z,4.80
2017-10-27T08:52:16.048Z,3.53
2017-10-27T08:54:43.540Z,6.43
2017-10-27T08:57:11.213Z,3.23
2017-10-27T08:59:38.673Z,14.03
2017-10-27T09:02:06.094Z,4.87
2017-10-27T09:04:33.521Z,6.47
2017-10-27T09:07:00.931Z,4.40
2017-10-27T09:09:28.341Z,3.90
2017-10-27T09:11:55.795Z,4.60
2017-10-27T09:14:23.241Z,5.10
2017-10-27T09:16:50.646Z,4.90
2017-10-27T09:19:18.103Z,4.20
2017-10-27T09:21:45.519Z,3.13
2017-10-27T09:24:13.831Z,6.70
2017-10-27T09:26:41.229Z,4.37
2017-10-27T09:29:08.648Z,7.10
2017-10-27T09:31:36.117Z,7.50
2017-10-27T09:34:03.507Z,8.50
2017-10-27T09:36:30.932Z,4.20
2017-10-27T09:38:58.334Z,6.10
2017-10-27T09:41:25.748Z,6.33
2017-10-27T09:43:53.153Z,5.43
2017-10-27T09:46:20.663Z,3.77
2017-10-27T09:48:48.100Z,3.97
2017-10-27T09:51:15.577Z,6.73
2017-10-27T09:53:42.957Z,6.40
2017-10-27T09:56:10.421Z,9.23
2017-10-27T09:58:38.157Z,3.57
2017-10-27T10:01:05.556Z,3.70
2017-10-27T10:03:32.996Z,8.83
2017-10-27T10:06:00.400Z,2.57
2017-10-27T10:08:27.830Z,3.40
2017-10-27T10:10:55.219Z,3.37
2017-10-27T10:13:22.687Z,2.10
2017-10-27T10:15:50.093Z,5.20
2017-10-27T10:18:17.524Z,2.30
2017-10-27T10:20:45.703Z,2.37
2017-10-27T10:23:13.136Z,2.17
2017-10-27T10:25:40.563Z,3.40
2017-10-27T10:28:07.963Z,2.83
2017-10-27T10:30:35.475Z,4.53
2017-10-27T10:33:02.868Z,6.43
2017-10-27T10:35:30.390Z,2.83
2017-10-27T10:37:57.831Z,3.83
2017-10-27T10:40:25.379Z,3.63
2017-10-27T10:42:52.784Z,4.83
2017-10-27T10:45:20.301Z,3.97
2017-10-27T10:47:47.723Z,5.33
2017-10-27T10:50:15.124Z,13.47
2017-10-27T10:52:42.551Z,5.47
2017-10-27T10:55:10.029Z,4.00
2017-10-27T10:57:37.428Z,2.73
2017-10-27T11:00:04.850Z,7.37
2017-10-27T11:02:32.332Z,2.60
2017-10-27T11:04:59.746Z,13.07
2017-10-27T11:07:27.140Z,4.03
2017-10-27T11:09:54.638Z,3.53
2017-10-27T11:12:22.064Z,5.33
2017-10-27T11:14:49.578Z,6.10
2017-10-27T11:17:16.999Z,2.83
2017-10-27T11:19:44.419Z,4.07
2017-10-27T11:22:11.832Z,6.30
2017-10-27T11:24:39.280Z,7.97
2017-10-27T11:27:06.676Z,3.93
2017-10-27T11:29:34.115Z,2.80
2017-10-27T11:32:01.554Z,14.43
2017-10-27T11:34:28.982Z,1.90
2017-10-27T11:36:56.407Z,2.60
2017-10-27T11:39:24.084Z,2.97
2017-10-27T11:41:51.584Z,2.17
2017-10-27T11:44:19.014Z,3.33
2017-10-27T11:46:47.176Z,2.43
2017-10-27T11:49:14.664Z,5.93
2017-10-27T11:51:42.083Z,8.53
2017-10-27T11:54:09.519Z,9.93
2017-10-27T11:56:36.953Z,5.90
2017-10-27T11:59:04.384Z,1.80
2017-10-27T12:01:32.043Z,10.43
2017-10-27T12:03:59.460Z,2.63
2017-10-27T12:06:26.892Z,3.90
2017-10-27T12:08:54.289Z,1.83
2017-10-27T12:11:21.723Z,4.17
2017-10-27T12:13:49.124Z,4.07
2017-10-27T12:16:16.536Z,5.30
2017-10-27T12:18:43.943Z,2.80
2017-10-27T12:21:11.368Z,17.90
2017-10-27T12:23:39.355Z,3.23
2017-10-27T12:26:06.792Z,6.83
2017-10-27T12:28:34.200Z,1.50
2017-10-27T12:31:01.645Z,4.00
2017-10-27T12:33:29.087Z,3.40
2017-10-27T12:35:56.492Z,1.80
2017-10-27T12:38:23.931Z,1.20
2017-10-27T12:40:51.324Z,1.97
2017-10-27T12:43:18.755Z,1.67
2017-10-27T12:45:46.190Z,1.20
2017-10-27T12:48:13.611Z,3.10
2017-10-27T12:50:41.030Z,1.63
2017-10-27T12:53:08.484Z,1.80
2017-10-27T12:55:35.959Z,4.03
2017-10-27T12:58:03.445Z,2.70
2017-10-27T13:00:30.853Z,1.97
2017-10-27T13:02:58.257Z,3.53
2017-10-27T13:05:25.731Z,2.47
2017-10-27T13:07:53.130Z,5.03
2017-10-27T13:10:20.592Z,1.50
2017-10-27T13:12:48.036Z,2.60
2017-10-27T13:15:15.487Z,7.23
2017-10-27T13:17:43.583Z,6.40
2017-10-27T13:20:11.038Z,1.60
2017-10-27T13:22:38.479Z,4.20
2017-10-27T13:25:05.918Z,4.43
2017-10-27T13:27:33.346Z,1.57
2017-10-27T13:30:00.745Z,2.43
2017-10-27T13:32:28.213Z,3.80
2017-10-27T13:34:55.613Z,4.40
2017-10-27T13:37:23.053Z,4.23
2017-10-27T13:39:51.544Z,4.83
2017-10-27T13:42:19.512Z,2.87
2017-10-27T13:44:46.939Z,3.73
2017-10-27T13:47:14.383Z,19.70
2017-10-27T13:49:41.809Z,3.00
2017-10-27T13:52:09.256Z,3.60
2017-10-27T13:54:36.725Z,4.20
2017-10-27T13:57:04.172Z,3.07
2017-10-27T13:59:31.627Z,1.87
2017-10-27T14:01:59.041Z,2.53
2017-10-27T14:04:26.524Z,2.30
2017-10-27T14:06:53.947Z,5.20
2017-10-27T14:09:21.386Z,2.87
2017-10-27T14:11:48.793Z,3.47
2017-10-27T14:14:16.229Z,4.03
2017-10-27T14:16:43.633Z,4.13
2017-10-27T14:19:11.095Z,5.37
2017-10-27T14:21:38.515Z,9.17
2017-10-27T14:24:06.022Z,4.67
2017-10-27T14:26:33.424Z,3.57
2017-10-27T14:29:00.840Z,4.70
2017-10-27T14:31:28.248Z,3.27
2017-10-27T14:33:55.695Z,7.43
2017-10-27T14:36:23.108Z,5.07
2017-10-27T14:38:51.115Z,2.40
2017-10-27T14:41:18.541Z,6.17
2017-10-27T14:43:45.936Z,2.63
2017-10-27T14:46:13.400Z,18.10
2017-10-27T14:48:40.794Z,6.03
2017-10-27T14:51:08.272Z,4.87
2017-10-27T14:53:35.769Z,3.60
2017-10-27T14:56:03.200Z,5.77
2017-10-27T14:58:30.608Z,4.83
2017-10-27T15:00:58.077Z,2.07
2017-10-27T15:03:25.500Z,3.90
2017-10-27T15:05:52.927Z,6.97
2017-10-27T15:08:20.400Z,3.70
2017-10-27T15:10:47.803Z,12.50
2017-10-27T15:13:15.260Z,7.47
2017-10-27T15:15:42.693Z,5.77
2017-10-27T15:18:10.151Z,10.03
2017-10-27T15:20:37.548Z,6.30
2017-10-27T15:23:05.013Z,4.17
2017-10-27T15:25:32.424Z,3.53
2017-10-27T15:27:59.821Z,4.17
2017-10-27T15:30:27.252Z,4.03
2017-10-27T15:32:54.679Z,6.47
2017-10-27T15:35:22.108Z,3.10
2017-10-27T15:37:49.527Z,2.33
2017-10-27T15:40:16.967Z,3.53
2017-10-27T15:42:44.355Z,2.70
2017-10-27T15:45:11.776Z,6.50
2017-10-27T15:47:39.176Z,3.47
2017-10-27T15:50:06.829Z,5.10
2017-10-27T15:52:34.324Z,4.77
2017-10-27T15:55:01.786Z,7.87
2017-10-27T15:57:29.199Z,4.90
2017-10-27T15:59:56.591Z,5.17
2017-10-27T16:02:24.040Z,5.43
2017-10-27T16:04:51.481Z,4.27
2017-10-27T16:07:18.932Z,4.07
2017-10-27T16:09:46.397Z,4.37
2017-10-27T16:12:13.819Z,7.07
2017-10-27T16:14:41.931Z,5.20
2017-10-27T16:17:09.430Z,7.30
2017-10-27T16:19:36.836Z,3.27
2017-10-27T16:22:04.272Z,5.60
2017-10-27T16:24:31.733Z,6.10
2017-10-27T16:26:59.135Z,6.03
2017-10-27T16:29:26.553Z,9.40
2017-10-27T16:31:53.996Z,3.73
2017-10-27T16:34:21.438Z,6.03
2017-10-27T16:36:48.832Z,5.90
2017-10-27T16:39:16.258Z,4.60
2017-10-27T16:41:43.707Z,4.57
2017-10-27T16:44:11.168Z,8.50
2017-10-27T16:46:38.576Z,5.23
2017-10-27T16:49:06.032Z,4.23
2017-10-27T16:51:33.460Z,6.20
2017-10-27T16:54:00.919Z,7.13
2017-10-27T16:56:28.360Z,9.60
2017-10-27T16:58:55.811Z,3.57
2017-10-27T17:01:23.333Z,5.13
2017-10-27T17:03:50.824Z,10.30
2017-10-27T17:06:18.335Z,5.20
2017-10-27T17:08:45.812Z,6.37
2017-10-27T17:11:13.328Z,26.27
2017-10-27T17:13:40.767Z,5.80
2017-10-27T17:16:08.215Z,5.23
2017-10-27T17:18:35.637Z,7.20
2017-10-27T17:21:03.094Z,4.43
2017-10-27T17:23:31.747Z,9.90
2017-10-27T17:25:59.180Z,11.30
2017-10-27T17:28:26.636Z,8.10
2017-10-27T17:30:54.078Z,6.87
2017-10-27T17:33:21.606Z,7.67
2017-10-27T17:35:49.008Z,6.67
2017-10-27T17:38:16.477Z,8.20
2017-10-27T17:40:43.887Z,7.97
2017-10-27T17:43:11.321Z,7.17
2017-10-27T17:45:38.778Z,8.83
2017-10-27T17:48:06.212Z,10.20
2017-10-27T17:50:33.647Z,7.30
2017-10-27T17:53:01.035Z,6.70
2017-10-27T17:55:28.469Z,4.10
2017-10-27T17:57:55.962Z,7.83
2017-10-27T18:00:23.404Z,5.13
2017-10-27T18:02:50.832Z,5.80
2017-10-27T18:05:18.292Z,6.57
2017-10-27T18:07:45.687Z,5.97
2017-10-27T18:10:13.116Z,14.33
2017-10-27T18:12:40.554Z,6.40
2017-10-27T18:15:07.992Z,7.70
2017-10-27T18:17:35.448Z,7.10
2017-10-27T18:20:02.904Z,8.93
2017-10-27T18:22:30.346Z,11.23
2017-10-27T18:24:57.768Z,10.27
2017-10-27T18:27:25.196Z,6.70
2017-10-27T18:29:52.650Z,9.37
2017-10-27T18:32:20.094Z,12.70
2017-10-27T18:34:47.516Z,10.77
2017-10-27T18:37:14.935Z,7.03
2017-10-27T18:39:42.336Z,9.57
2017-10-27T18:42:09.770Z,8.70
2017-10-27T18:44:37.324Z,8.27
2017-10-27T18:47:04.747Z,10.33
2017-10-27T18:49:32.189Z,6.80
2017-10-27T18:51:59.605Z,8.73
2017-10-27T18:54:27.425Z,5.70
2017-10-27T18:56:54.850Z,5.00
2017-10-27T18:59:22.321Z,6.90
2017-10-27T19:01:49.783Z,7.70
2017-10-27T19:04:17.216Z,12.93
2017-10-27T19:06:44.624Z,10.47
2017-10-27T19:09:12.048Z,7.30
2017-10-27T19:11:39.460Z,8.13
2017-10-27T19:14:06.916Z,14.30
2017-10-27T19:16:34.335Z,14.23
2017-10-27T19:19:01.748Z,11.03
2017-10-27T19:21:29.195Z,10.03
2017-10-27T19:23:56.587Z,7.77
2017-10-27T19:26:24.034Z,8.37
2017-10-27T19:28:51.440Z,11.30
2017-10-27T19:31:18.892Z,7.40
2017-10-27T19:33:46.311Z,12.63
2017-10-27T19:36:13.757Z,7.30
2017-10-27T19:38:41.196Z,11.70
2017-10-27T19:41:08.585Z,9.10
2017-10-27T19:43:36.036Z,8.27
2017-10-27T19:46:03.462Z,6.37
2017-10-27T19:48:30.900Z,7.93
2017-10-27T19:50:58.296Z,6.83
2017-10-27T19:53:25.714Z,8.17
2017-10-27T19:55:53.120Z,4.53
2017-10-27T19:58:20.575Z,4.50
2017-10-27T20:00:47.975Z,6.10
2017-10-27T20:03:15.434Z,5.87
2017-10-27T20:05:42.979Z,8.93
2017-10-27T20:08:10.451Z,6.47
2017-10-27T20:10:37.860Z,4.50
2017-10-27T20:13:05.300Z,8.30
2017-10-27T20:15:32.701Z,9.87
2017-10-27T20:18:00.117Z,7.90
2017-10-27T20:20:27.548Z,8.40
2017-10-27T20:22:54.941Z,6.00
2017-10-27T20:25:22.365Z,7.70
2017-10-27T20:27:49.782Z,7.47
2017-10-27T20:30:17.529Z,13.23
2017-10-27T20:32:44.928Z,10.67
2017-10-27T20:35:12.368Z,5.60
2017-10-27T20:37:39.768Z,7.10
2017-10-27T20:40:07.194Z,8.37
2017-10-27T20:42:34.626Z,13.23
2017-10-27T20:45:02.054Z,8.90
2017-10-27T20:47:29.480Z,7.67
2017-10-27T20:49:56.900Z,8.40
2017-10-27T20:52:24.351Z,5.60
2017-10-27T20:54:51.751Z,8.93
2017-10-27T20:57:19.228Z,7.10
2017-10-27T20:59:46.645Z,11.50
2017-10-27T21:02:14.077Z,10.50
2017-10-27T21:04:41.518Z,14.27
2017-10-27T21:07:08.914Z,9.80
2017-10-27T21:09:36.347Z,7.17
2017-10-27T21:12:03.900Z,6.93
2017-10-27T21:14:31.348Z,4.13
2017-10-27T21:16:58.761Z,7.23
2017-10-27T21:19:26.200Z,6.23
2017-10-27T21:21:53.596Z,9.50
2017-10-27T21:24:21.098Z,7.43
2017-10-27T21:26:48.526Z,7.87
2017-10-27T21:29:15.960Z,10.27
2017-10-27T21:31:44.811Z,9.97
2017-10-27T21:34:12.246Z,11.70
2017-10-27T21:36:39.691Z,16.80
2017-10-27T21:39:07.223Z,11.27
2017-10-27T21:41:34.641Z,9.83
2017-10-27T21:44:02.052Z,15.17
2017-10-27T21:46:29.861Z,20.10
2017-10-27T21:48:57.250Z,16.57
2017-10-27T21:51:24.685Z,12.67
2017-10-27T21:53:52.101Z,13.67
2017-10-27T21:56:19.520Z,22.83
2017-10-27T21:58:46.942Z,19.73
2017-10-27T22:01:14.382Z,18.33
2017-10-27T22:03:41.825Z,11.30
2017-10-27T22:06:09.229Z,16.63
2017-10-27T22:08:36.668Z,8.33
2017-10-27T22:11:04.094Z,9.67
2017-10-27T22:13:31.539Z,11.10
2017-10-27T22:15:58.962Z,6.87
2017-10-27T22:18:26.387Z,8.90
2017-10-27T22:20:53.796Z,4.00
2017-10-27T22:23:21.222Z,10.10
2017-10-27T22:25:48.624Z,5.20
2017-10-27T22:28:16.088Z,6.80
2017-10-27T22:30:43.481Z,5.73
2017-10-27T22:33:10.909Z,7.30
2017-10-27T22:35:38.316Z,5.03
2017-10-27T22:38:05.752Z,7.87
2017-10-27T22:40:33.152Z,10.60
2017-10-27T22:43:00.584Z,7.77
2017-10-27T22:45:28.037Z,13.50
2017-10-27T22:47:55.461Z,5.77
2017-10-27T22:50:22.896Z,9.07
2017-10-27T22:52:50.308Z,3.50
2017-10-27T22:55:17.763Z,3.53
2017-10-27T22:57:45.168Z,6.10
2017-10-27T23:00:12.835Z,7.37
2017-10-27T23:02:40.242Z,5.17
2017-10-27T23:05:07.659Z,7.43
2017-10-27T23:10:42.147Z,6.83
2017-10-27T23:13:09.594Z,9.33
2017-10-27T23:15:36.999Z,7.70
2017-10-27T23:18:04.431Z,6.77
2017-10-27T23:20:31.843Z,7.20
2017-10-27T23:22:59.319Z,6.70
2017-10-27T23:25:26.720Z,12.70
2017-10-27T23:27:54.160Z,4.30
2017-10-27T23:30:21.566Z,7.33
2017-10-27T23:32:48.974Z,5.97
2017-10-27T23:35:16.404Z,6.80
2017-10-27T23:37:43.789Z,4.80
2017-10-27T23:40:11.243Z,3.87
2017-10-27T23:42:38.630Z,6.03
2017-10-27T23:45:06.047Z,8.30
2017-10-27T23:47:33.438Z,6.00
2017-10-27T23:50:00.855Z,3.03
2017-10-27T23:52:28.280Z,3.97
2017-10-27T23:54:55.716Z,5.70
2017-10-27T23:57:23.111Z,4.80
2017-10-27T23:59:50.533Z,9.70
